MV Lockmaster — WDF4136 — position and weather

sailwx.info

Track history (hours):
 
Tides and Currents Weather Stations Pressure Air Temp Water Temp Dewpoint Dewpoint Depression Visibility Wind Speed Wind Dir Waves Ship Positions

MV Lockmaster

Owner: River Construction, Metaire, LA. More information available from US FCC via Universal Licensing System and Coast Guard Vessel Documentation Center.

Last reported at 2015-Sep-01 17:32 UTC. Time now 2015-Sep-01 18:12 UTC.
Position N 30°00' W 089°59'.

Type: Towing. MMSI: 367448420.

Date/timePositionNaut miles runAvg speedWind from/ knotsBaromVisibWave heightAir tempDewpointWater temp
2015-Sep-01 17:32N 30°00' W 089°59'0 0.0
2015-Sep-01 16:33N 30°00' W 089°59'0 0.0
2015-Sep-01 15:33N 29°60' W 089°59'0 0.1
2015-Sep-01 13:33N 30°00' W 089°59'0 0.2
2015-Sep-01 12:33N 30°00' W 089°59'0 0.0
2015-Sep-01 11:33N 30°00' W 089°59'0 0.0
2015-Sep-01 10:33N 30°00' W 089°59'0 0.0
2015-Sep-01 09:33N 30°00' W 089°59'0 0.0
2015-Sep-01 08:33N 30°00' W 089°59'0 0.0
2015-Sep-01 07:28N 29°60' W 089°59'0 0.0
2015-Sep-01 06:33N 30°00' W 089°59'0 0.0
2015-Sep-01 05:25N 30°00' W 089°59'0 0.0
2015-Aug-31 20:22N 30°00' W 089°59'0 0.2
2015-Aug-31 19:32N 29°60' W 089°60'0 0.2
2015-Aug-31 18:33N 30°00' W 089°59'0 0.0
2015-Aug-31 17:23N 30°00' W 089°59'0 0.0
2015-Aug-31 16:04N 30°00' W 089°59'0 0.0
2015-Aug-31 15:29N 30°00' W 089°59'0 0.0
2015-Aug-30 18:33N 29°60' W 089°60'2 0.8
2015-Aug-30 15:32N 29°58' W 090°02'3 2.8
2015-Aug-30 14:30N 29°60' W 089°59'0 0.1
2015-Aug-30 13:29N 30°00' W 089°59'0 0.0
2015-Aug-30 12:30N 30°00' W 089°59'0 0.0
2015-Aug-30 11:32N 30°00' W 089°59'0 0.0
2015-Aug-30 10:33N 30°00' W 089°59'0 0.0
2015-Aug-30 09:33N 29°60' W 089°59'0 0.0
2015-Aug-30 08:31N 29°60' W 089°59'0 0.0
2015-Aug-30 07:29N 30°00' W 089°59'0 0.0
2015-Aug-30 06:32N 30°00' W 089°59'0 0.0
2015-Aug-30 05:33N 30°00' W 089°59'0 0.0
2015-Aug-30 04:32N 30°00' W 089°59'0 0.0
2015-Aug-30 03:24N 30°00' W 089°59'0 0.0
2015-Aug-29 08:29N 30°00' W 089°59'0 0.0
2015-Aug-29 05:33N 30°00' W 089°59'0 0.0
2015-Aug-29 04:31N 29°60' W 089°59'0 0.0
2015-Aug-29 03:31N 29°60' W 089°59'0 0.0
2015-Aug-29 02:31N 30°00' W 089°59'0 0.0
2015-Aug-29 00:29N 30°00' W 089°59'0 0.1
2015-Aug-28 23:33N 30°00' W 089°59'0 0.0
2015-Aug-28 22:32N 30°00' W 089°59'0 0.0
2015-Aug-28 21:33N 30°00' W 089°59'0 0.0
2015-Aug-28 20:33N 30°00' W 089°59'0 0.0
2015-Aug-28 19:32N 30°00' W 089°59'0 0.0
2015-Aug-28 18:33N 30°00' W 089°59'0 0.0
2015-Aug-28 17:33N 30°00' W 089°59'0 0.0
2015-Aug-28 16:33N 30°00' W 089°59'0 0.0
2015-Aug-28 15:31N 30°00' W 089°59'0 0.0
2015-Aug-28 14:31N 30°00' W 089°59'0 0.0
2015-Aug-28 13:29N 29°60' W 089°59'0 0.0
2015-Aug-27 13:17N 29°60' W 089°59'0 0.0
2015-Aug-27 11:25N 29°60' W 089°59'0 0.0
2015-Aug-27 10:31N 29°60' W 089°59'0 0.0
2015-Aug-27 09:26N 30°00' W 089°59'0 0.0
2015-Aug-27 08:31N 30°00' W 089°59'0 0.0
2015-Aug-27 07:31N 29°60' W 089°59'0 0.0
2015-Aug-27 06:30N 30°00' W 089°59'0 0.0
2015-Aug-27 05:33N 30°00' W 089°59'0 0.0
2015-Aug-27 04:31N 30°00' W 089°59'0 0.0
2015-Aug-27 03:32N 29°60' W 089°59'0 0.0
2015-Aug-27 02:31N 30°00' W 089°59'0 0.0
2015-Aug-27 01:33N 30°00' W 089°59'0 0.0
2015-Aug-27 00:33N 29°60' W 089°59'0 0.0
2015-Aug-26 23:33N 30°00' W 089°59'0 0.0
2015-Aug-26 22:17N 30°00' W 089°59'0 0.0
2015-Aug-26 05:28N 30°00' W 089°59'2 0.4
2015-Aug-25 23:23N 29°58' W 090°01'2 2.2
2015-Aug-25 22:16N 30°00' W 089°59'0 0.2
2015-Aug-25 21:33N 30°00' W 089°59'0 0.0
2015-Aug-25 20:31N 30°00' W 089°59'0 0.0
2015-Aug-25 19:23N 30°00' W 089°59'0 0.0
2015-Aug-25 18:32N 30°00' W 089°59'0 0.0
2015-Aug-25 17:31N 30°00' W 089°59'0 0.0
2015-Aug-25 16:32N 30°00' W 089°59'0 0.0
2015-Aug-25 15:33N 29°60' W 089°59'0 0.0
2015-Aug-25 14:33N 29°60' W 089°59'0 0.0
2015-Aug-25 13:33N 29°60' W 089°59'0 0.0
2015-Aug-25 12:33N 30°00' W 089°59'0 0.0
2015-Aug-25 11:33N 30°00' W 089°59'0 0.0
2015-Aug-25 10:29N 29°60' W 089°59'0 0.0
2015-Aug-25 09:33N 30°00' W 089°59'0 0.0
2015-Aug-25 08:30N 30°00' W 089°59'0 0.0
2015-Aug-25 07:29N 29°60' W 089°59'0 0.0
2015-Aug-24 17:28N 30°00' W 089°59'0 0.0
2015-Aug-24 14:23N 30°00' W 089°59'0 0.0
2015-Aug-24 13:32N 30°00' W 089°59'0 0.0
2015-Aug-24 10:14N 30°00' W 089°59'0 0.0
2015-Aug-24 09:33N 30°00' W 089°59'1 0.3
2015-Aug-24 07:29N 29°60' W 090°00'2 0.6
2015-Aug-24 04:25N 29°58' W 090°02'1 0.9
2015-Aug-24 03:27N 29°59' W 090°01'1 1.3
2015-Aug-24 02:23N 29°58' W 090°02'5 2.2
2015-Aug-24 00:17N 29°55' W 089°57'5 5.5
2015-Aug-23 23:26N 29°58' W 090°02'0 0.4
2015-Aug-23 22:32N 29°58' W 090°02'2 2.0
2015-Aug-23 21:33N 29°60' W 090°00'1 0.6
2015-Aug-23 20:29N 29°60' W 089°59'0 0.0
2015-Aug-23 19:31N 30°00' W 089°59'0 0.0
2015-Aug-23 18:33N 29°60' W 089°59'0 0.0
2015-Aug-23 17:31N 30°00' W 089°59'0 0.0
2015-Aug-23 16:26N 30°00' W 089°59'0 0.0
2015-Aug-23 15:33N 30°00' W 089°59'0 0.0
2015-Aug-23 14:30N 30°00' W 089°59'  
Track history (hours):
 
Tides and Currents Weather Stations Pressure Air Temp Water Temp Dewpoint Dewpoint Depression Visibility Wind Speed Wind Dir Waves Ship Positions

MV Lockmaster

Owner: River Construction, Metaire, LA. More information available from US FCC via Universal Licensing System and Coast Guard Vessel Documentation Center.

Last reported at 2015-Sep-01 17:32 UTC. Time now 2015-Sep-01 18:12 UTC.
Position N 30°00' W 089°59'.

Type: Towing. MMSI: 367448420.

Date/timePositionNaut miles runAvg speedWind from/ knotsBaromVisibWave heightAir tempDewpointWater temp
2015-Sep-01 17:32N 30°00' W 089°59'0 0.0
2015-Sep-01 16:33N 30°00' W 089°59'0 0.0
2015-Sep-01 15:33N 29°60' W 089°59'0 0.1
2015-Sep-01 13:33N 30°00' W 089°59'0 0.2
2015-Sep-01 12:33N 30°00' W 089°59'0 0.0
2015-Sep-01 11:33N 30°00' W 089°59'0 0.0
2015-Sep-01 10:33N 30°00' W 089°59'0 0.0
2015-Sep-01 09:33N 30°00' W 089°59'0 0.0
2015-Sep-01 08:33N 30°00' W 089°59'0 0.0
2015-Sep-01 07:28N 29°60' W 089°59'0 0.0
2015-Sep-01 06:33N 30°00' W 089°59'0 0.0
2015-Sep-01 05:25N 30°00' W 089°59'0 0.0
2015-Aug-31 20:22N 30°00' W 089°59'0 0.2
2015-Aug-31 19:32N 29°60' W 089°60'0 0.2
2015-Aug-31 18:33N 30°00' W 089°59'0 0.0
2015-Aug-31 17:23N 30°00' W 089°59'0 0.0
2015-Aug-31 16:04N 30°00' W 089°59'0 0.0
2015-Aug-31 15:29N 30°00' W 089°59'0 0.0
2015-Aug-30 18:33N 29°60' W 089°60'2 0.8
2015-Aug-30 15:32N 29°58' W 090°02'3 2.8
2015-Aug-30 14:30N 29°60' W 089°59'0 0.1
2015-Aug-30 13:29N 30°00' W 089°59'0 0.0
2015-Aug-30 12:30N 30°00' W 089°59'0 0.0
2015-Aug-30 11:32N 30°00' W 089°59'0 0.0
2015-Aug-30 10:33N 30°00' W 089°59'0 0.0
2015-Aug-30 09:33N 29°60' W 089°59'0 0.0
2015-Aug-30 08:31N 29°60' W 089°59'0 0.0
2015-Aug-30 07:29N 30°00' W 089°59'0 0.0
2015-Aug-30 06:32N 30°00' W 089°59'0 0.0
2015-Aug-30 05:33N 30°00' W 089°59'0 0.0
2015-Aug-30 04:32N 30°00' W 089°59'0 0.0
2015-Aug-30 03:24N 30°00' W 089°59'0 0.0
2015-Aug-29 08:29N 30°00' W 089°59'0 0.0
2015-Aug-29 05:33N 30°00' W 089°59'0 0.0
2015-Aug-29 04:31N 29°60' W 089°59'0 0.0
2015-Aug-29 03:31N 29°60' W 089°59'0 0.0
2015-Aug-29 02:31N 30°00' W 089°59'0 0.0
2015-Aug-29 00:29N 30°00' W 089°59'0 0.1
2015-Aug-28 23:33N 30°00' W 089°59'0 0.0
2015-Aug-28 22:32N 30°00' W 089°59'0 0.0
2015-Aug-28 21:33N 30°00' W 089°59'0 0.0
2015-Aug-28 20:33N 30°00' W 089°59'0 0.0
2015-Aug-28 19:32N 30°00' W 089°59'0 0.0
2015-Aug-28 18:33N 30°00' W 089°59'0 0.0
2015-Aug-28 17:33N 30°00' W 089°59'0 0.0
2015-Aug-28 16:33N 30°00' W 089°59'0 0.0
2015-Aug-28 15:31N 30°00' W 089°59'0 0.0
2015-Aug-28 14:31N 30°00' W 089°59'0 0.0
2015-Aug-28 13:29N 29°60' W 089°59'0 0.0
2015-Aug-27 13:17N 29°60' W 089°59'0 0.0
2015-Aug-27 11:25N 29°60' W 089°59'0 0.0
2015-Aug-27 10:31N 29°60' W 089°59'0 0.0
2015-Aug-27 09:26N 30°00' W 089°59'0 0.0
2015-Aug-27 08:31N 30°00' W 089°59'0 0.0
2015-Aug-27 07:31N 29°60' W 089°59'0 0.0
2015-Aug-27 06:30N 30°00' W 089°59'0 0.0
2015-Aug-27 05:33N 30°00' W 089°59'0 0.0
2015-Aug-27 04:31N 30°00' W 089°59'0 0.0
2015-Aug-27 03:32N 29°60' W 089°59'0 0.0
2015-Aug-27 02:31N 30°00' W 089°59'0 0.0
2015-Aug-27 01:33N 30°00' W 089°59'0 0.0
2015-Aug-27 00:33N 29°60' W 089°59'0 0.0
2015-Aug-26 23:33N 30°00' W 089°59'0 0.0
2015-Aug-26 22:17N 30°00' W 089°59'0 0.0
2015-Aug-26 05:28N 30°00' W 089°59'2 0.4
2015-Aug-25 23:23N 29°58' W 090°01'2 2.2
2015-Aug-25 22:16N 30°00' W 089°59'0 0.2
2015-Aug-25 21:33N 30°00' W 089°59'0 0.0
2015-Aug-25 20:31N 30°00' W 089°59'0 0.0
2015-Aug-25 19:23N 30°00' W 089°59'0 0.0
2015-Aug-25 18:32N 30°00' W 089°59'0 0.0
2015-Aug-25 17:31N 30°00' W 089°59'0 0.0
2015-Aug-25 16:32N 30°00' W 089°59'0 0.0
2015-Aug-25 15:33N 29°60' W 089°59'0 0.0
2015-Aug-25 14:33N 29°60' W 089°59'0 0.0
2015-Aug-25 13:33N 29°60' W 089°59'0 0.0
2015-Aug-25 12:33N 30°00' W 089°59'0 0.0
2015-Aug-25 11:33N 30°00' W 089°59'0 0.0
2015-Aug-25 10:29N 29°60' W 089°59'0 0.0
2015-Aug-25 09:33N 30°00' W 089°59'0 0.0
2015-Aug-25 08:30N 30°00' W 089°59'0 0.0
2015-Aug-25 07:29N 29°60' W 089°59'0 0.0
2015-Aug-24 17:28N 30°00' W 089°59'0 0.0
2015-Aug-24 14:23N 30°00' W 089°59'0 0.0
2015-Aug-24 13:32N 30°00' W 089°59'0 0.0
2015-Aug-24 10:14N 30°00' W 089°59'0 0.0
2015-Aug-24 09:33N 30°00' W 089°59'1 0.3
2015-Aug-24 07:29N 29°60' W 090°00'2 0.6
2015-Aug-24 04:25N 29°58' W 090°02'1 0.9
2015-Aug-24 03:27N 29°59' W 090°01'1 1.3
2015-Aug-24 02:23N 29°58' W 090°02'5 2.2
2015-Aug-24 00:17N 29°55' W 089°57'5 5.5
2015-Aug-23 23:26N 29°58' W 090°02'0 0.4
2015-Aug-23 22:32N 29°58' W 090°02'2 2.0
2015-Aug-23 21:33N 29°60' W 090°00'1 0.6
2015-Aug-23 20:29N 29°60' W 089°59'0 0.0
2015-Aug-23 19:31N 30°00' W 089°59'0 0.0
2015-Aug-23 18:33N 29°60' W 089°59'0 0.0
2015-Aug-23 17:31N 30°00' W 089°59'0 0.0
2015-Aug-23 16:26N 30°00' W 089°59'0 0.0
2015-Aug-23 15:33N 30°00' W 089°59'0 0.0
2015-Aug-23 14:30N 30°00' W 089°59'  

Dump ship's entire track history